createdAt,value
2023-03-16T00:02:49.307Z,3.04
2023-03-16T00:07:54.811Z,3.01
2023-03-16T00:13:00.194Z,2.92
2023-03-16T00:18:05.804Z,2.84
2023-03-16T00:23:12.068Z,2.80
2023-03-16T00:28:17.509Z,2.83
2023-03-16T00:33:23.264Z,2.82
2023-03-16T00:38:29.456Z,2.76
2023-03-16T00:43:45.498Z,2.74
2023-03-16T00:48:52.580Z,2.75
2023-03-16T00:53:58.096Z,2.80
2023-03-16T00:59:05.280Z,2.75
2023-03-16T01:04:10.993Z,2.71
2023-03-16T01:09:16.785Z,2.67
2023-03-16T01:14:24.359Z,2.68
2023-03-16T01:19:30.174Z,2.69
2023-03-16T01:24:36.190Z,2.60
2023-03-16T01:29:43.873Z,2.58
2023-03-16T01:34:50.144Z,2.53
2023-03-16T01:39:56.295Z,2.51
2023-03-16T01:45:04.424Z,2.48
2023-03-16T01:50:12.010Z,2.47
2023-03-16T01:55:19.115Z,2.52
2023-03-16T02:00:26.827Z,2.50
2023-03-16T02:05:46.136Z,2.44
2023-03-16T02:10:54.913Z,2.52
2023-03-16T02:16:02.699Z,2.41
2023-03-16T02:21:33.753Z,2.46
2023-03-16T02:26:58.488Z,2.43
2023-03-16T02:32:07.006Z,2.48
2023-03-16T02:37:12.995Z,2.44
2023-03-16T02:42:23.445Z,2.44
2023-03-16T02:47:38.653Z,2.41
2023-03-16T02:52:44.388Z,2.50
2023-03-16T02:57:50.214Z,2.48
2023-03-16T03:02:55.882Z,2.46
2023-03-16T03:08:01.720Z,2.46
2023-03-16T03:13:10.584Z,2.44
2023-03-16T03:18:18.587Z,2.47
2023-03-16T03:23:24.113Z,2.46
2023-03-16T03:28:30.004Z,2.47
2023-03-16T03:33:35.726Z,2.49
2023-03-16T03:38:41.873Z,2.50
2023-03-16T03:43:48.208Z,2.38
2023-03-16T03:48:54.763Z,2.35
2023-03-16T03:54:00.757Z,2.38
2023-03-16T03:59:11.032Z,2.30
2023-03-16T04:04:34.423Z,2.33
2023-03-16T04:09:40.214Z,2.31
2023-03-16T04:14:47.596Z,2.35
2023-03-16T04:19:54.009Z,2.42
2023-03-16T04:24:59.540Z,2.42
2023-03-16T04:30:07.407Z,2.36
2023-03-16T04:35:13.588Z,2.28
2023-03-16T04:40:23.763Z,2.31
2023-03-16T04:45:31.240Z,2.32
2023-03-16T04:50:37.668Z,2.36
2023-03-16T04:55:45.679Z,2.31
2023-03-16T05:00:54.180Z,2.33
2023-03-16T05:06:01.456Z,2.24
2023-03-16T05:11:08.150Z,2.25
2023-03-16T05:16:15.286Z,2.32
2023-03-16T05:21:21.351Z,2.41
2023-03-16T05:26:34.812Z,2.51
2023-03-16T05:31:42.053Z,2.50
2023-03-16T05:36:51.280Z,2.49
2023-03-16T05:41:59.547Z,2.51
2023-03-16T05:47:07.308Z,2.56
2023-03-16T05:52:14.633Z,2.62
2023-03-16T05:57:20.337Z,2.71
2023-03-16T06:02:27.462Z,2.85
2023-03-16T06:07:33.607Z,2.82
2023-03-16T06:12:39.499Z,2.87
2023-03-16T06:17:45.382Z,2.95
2023-03-16T06:22:50.918Z,3.01
2023-03-16T06:27:56.614Z,3.09
2023-03-16T06:33:02.462Z,3.11
2023-03-16T06:38:08.229Z,3.09
2023-03-16T06:43:15.337Z,3.32
2023-03-16T06:48:21.777Z,3.20
2023-03-16T06:53:28.254Z,3.26
2023-03-16T06:58:34.622Z,3.37
2023-03-16T07:03:40.513Z,3.31
2023-03-16T07:08:48.586Z,3.34
2023-03-16T07:13:54.937Z,3.38
2023-03-16T07:19:01.870Z,3.38
2023-03-16T07:24:09.229Z,3.60
2023-03-16T07:29:17.253Z,3.87
2023-03-16T07:34:23.059Z,4.10
2023-03-16T07:39:43.895Z,4.21
2023-03-16T07:44:52.173Z,4.42
2023-03-16T07:49:58.094Z,4.52
2023-03-16T07:55:04.415Z,4.52
2023-03-16T08:00:14.211Z,4.72
2023-03-16T08:05:20.267Z,4.92
2023-03-16T08:10:28.344Z,5.04
2023-03-16T08:15:36.080Z,5.35
2023-03-16T08:20:44.768Z,5.38
2023-03-16T08:25:55.821Z,5.53
2023-03-16T08:31:01.840Z,5.43
2023-03-16T08:36:21.082Z,5.32
2023-03-16T08:41:29.637Z,5.57
2023-03-16T08:46:36.776Z,5.90
2023-03-16T08:51:44.522Z,5.97
2023-03-16T08:56:51.502Z,6.09
2023-03-16T09:01:57.451Z,6.08
2023-03-16T09:07:08.940Z,6.20
2023-03-16T09:12:12.604Z,6.03
2023-03-16T09:17:18.757Z,6.27
2023-03-16T09:22:24.653Z,6.63
2023-03-16T09:27:30.801Z,6.58
2023-03-16T09:32:37.680Z,7.20
2023-03-16T09:37:45.937Z,7.15
2023-03-16T09:43:24.048Z,7.21
2023-03-16T09:48:32.960Z,7.18
2023-03-16T09:53:42.132Z,7.09
2023-03-16T09:58:47.594Z,7.44
2023-03-16T10:04:28.022Z,7.44
2023-03-16T10:09:39.716Z,7.73
2023-03-16T10:14:57.833Z,7.70
2023-03-16T10:20:09.357Z,7.92
2023-03-16T10:25:38.657Z,7.74
2023-03-16T10:30:44.723Z,7.88
2023-03-16T10:36:25.641Z,8.07
2023-03-16T10:41:34.109Z,8.06
2023-03-16T10:46:54.274Z,9.38
2023-03-16T10:52:01.477Z,8.48
2023-03-16T10:57:22.751Z,8.10
2023-03-16T11:02:36.596Z,8.07
2023-03-16T11:07:50.326Z,8.41
2023-03-16T11:12:59.301Z,8.61
2023-03-16T11:18:03.881Z,9.09
2023-03-16T11:23:12.375Z,8.73
2023-03-16T11:28:38.972Z,8.96
2023-03-16T11:33:44.692Z,9.42
2023-03-16T11:38:59.087Z,9.64
2023-03-16T11:44:13.415Z,9.46
2023-03-16T11:49:38.726Z,9.42
2023-03-16T11:54:54.436Z,9.58
2023-03-16T12:00:15.245Z,9.71
2023-03-16T12:05:30.521Z,9.56
2023-03-16T12:10:39.330Z,9.65
2023-03-16T12:15:48.374Z,9.62
2023-03-16T12:21:05.978Z,10.13
2023-03-16T12:26:14.749Z,10.56
2023-03-16T12:31:23.312Z,10.98
2023-03-16T12:36:54.833Z,10.83
2023-03-16T12:42:12.115Z,10.30
2023-03-16T12:47:32.844Z,10.70
2023-03-16T12:52:47.150Z,10.74
2023-03-16T12:57:54.910Z,10.75
2023-03-16T13:03:01.725Z,10.62
2023-03-16T13:08:10.695Z,10.24
2023-03-16T13:13:18.452Z,10.54
2023-03-16T13:18:25.650Z,10.87
2023-03-16T13:23:50.422Z,10.89
2023-03-16T13:28:56.815Z,10.91
2023-03-16T13:34:04.010Z,11.19
2023-03-16T13:39:23.815Z,11.33
2023-03-16T13:44:30.748Z,11.80
2023-03-16T13:49:39.192Z,11.72
2023-03-16T13:54:44.789Z,11.47
2023-03-16T13:59:50.650Z,11.63
2023-03-16T14:04:56.168Z,11.37
2023-03-16T14:10:02.107Z,11.31
2023-03-16T14:15:10.248Z,11.40
2023-03-16T14:20:21.793Z,11.58
2023-03-16T14:25:29.280Z,11.92
2023-03-16T14:30:34.940Z,11.95
2023-03-16T14:35:45.575Z,12.11
2023-03-16T14:40:57.655Z,12.22
2023-03-16T14:46:08.782Z,11.93
2023-03-16T14:51:16.519Z,11.83
2023-03-16T14:56:22.345Z,11.82
2023-03-16T15:01:28.293Z,11.73
2023-03-16T15:06:35.116Z,11.84
2023-03-16T15:11:42.369Z,11.70
2023-03-16T15:16:48.854Z,11.87
2023-03-16T15:21:54.744Z,11.84
2023-03-16T15:27:00.866Z,11.70
2023-03-16T15:32:09.397Z,11.67
2023-03-16T15:37:17.618Z,11.77
2023-03-16T15:42:23.344Z,11.88
2023-03-16T15:47:29.160Z,11.87
2023-03-16T15:52:37.671Z,11.92
2023-03-16T15:57:43.129Z,12.06
2023-03-16T16:02:48.851Z,12.11
2023-03-16T16:07:55.626Z,12.19
2023-03-16T16:13:01.845Z,12.36
2023-03-16T16:18:30.721Z,12.39
2023-03-16T16:23:37.342Z,12.34
2023-03-16T16:28:43.084Z,12.29
2023-03-16T16:33:49.113Z,12.10
2023-03-16T16:38:56.260Z,11.65
2023-03-16T16:44:03.679Z,11.40
2023-03-16T16:49:18.181Z,11.04
2023-03-16T16:54:26.335Z,10.80
2023-03-16T16:59:37.778Z,10.54
2023-03-16T17:04:43.544Z,10.28
2023-03-16T17:09:49.550Z,10.02
2023-03-16T17:14:55.780Z,9.77
2023-03-16T17:20:01.928Z,9.58
2023-03-16T17:25:08.581Z,9.38
2023-03-16T17:30:29.080Z,9.20
2023-03-16T17:35:35.342Z,8.99
2023-03-16T17:40:42.090Z,8.74
2023-03-16T17:45:48.776Z,8.65
2023-03-16T17:50:55.251Z,8.51
2023-03-16T17:56:01.039Z,8.42
2023-03-16T18:01:07.342Z,8.32
2023-03-16T18:06:25.634Z,8.17
2023-03-16T18:11:37.593Z,8.09
2023-03-16T18:16:43.547Z,8.02
2023-03-16T18:21:50.254Z,7.96
2023-03-16T18:26:56.089Z,7.88
2023-03-16T18:32:02.051Z,7.76
2023-03-16T18:37:09.717Z,7.73
2023-03-16T18:42:23.973Z,7.65
2023-03-16T18:47:31.160Z,7.63
2023-03-16T18:52:39.232Z,7.58
2023-03-16T18:57:46.929Z,7.52
2023-03-16T19:02:55.366Z,7.43
2023-03-16T19:08:01.606Z,7.40
2023-03-16T19:13:13.306Z,7.34
2023-03-16T19:18:19.318Z,7.33
2023-03-16T19:23:28.755Z,7.23
2023-03-16T19:28:37.444Z,7.18
2023-03-16T19:33:43.337Z,7.12
2023-03-16T19:38:51.344Z,7.05
2023-03-16T19:43:59.184Z,7.29
2023-03-16T19:49:06.360Z,7.17
2023-03-16T19:54:14.974Z,7.15
2023-03-16T19:59:21.820Z,7.14
2023-03-16T20:04:28.737Z,7.13
2023-03-16T20:09:34.625Z,7.20
2023-03-16T20:14:40.781Z,7.13
2023-03-16T20:19:46.709Z,7.14
2023-03-16T20:24:55.030Z,7.21
2023-03-16T20:30:00.615Z,7.19
2023-03-16T20:35:08.685Z,7.20
2023-03-16T20:40:14.386Z,7.15
2023-03-16T20:45:30.731Z,7.05
2023-03-16T20:50:36.517Z,7.06
2023-03-16T20:55:42.158Z,6.97
2023-03-16T21:00:50.680Z,7.02
2023-03-16T21:05:59.673Z,6.97
2023-03-16T21:11:07.147Z,7.01
2023-03-16T21:16:13.328Z,7.07
2023-03-16T21:21:21.393Z,7.03
2023-03-16T21:26:28.897Z,7.00
2023-03-16T21:31:35.714Z,7.00
2023-03-16T21:36:44.301Z,6.95
2023-03-16T21:41:50.857Z,6.96
2023-03-16T21:46:56.973Z,6.79
2023-03-16T21:52:03.093Z,6.75
2023-03-16T21:57:14.251Z,6.67
2023-03-16T22:02:22.992Z,6.65
2023-03-16T22:07:28.570Z,6.62
2023-03-16T22:12:34.027Z,6.55
2023-03-16T22:17:40.823Z,6.44
2023-03-16T22:22:47.322Z,6.50
2023-03-16T22:27:53.836Z,6.44
2023-03-16T22:33:02.382Z,6.40
2023-03-16T22:38:10.285Z,6.42
2023-03-16T22:43:19.125Z,6.42
2023-03-16T22:48:27.496Z,6.35
2023-03-16T22:53:38.940Z,6.34
2023-03-16T22:58:50.620Z,6.31
2023-03-16T23:03:56.619Z,6.31
2023-03-16T23:09:02.473Z,6.37
2023-03-16T23:14:14.296Z,6.40
2023-03-16T23:19:31.980Z,6.46
2023-03-16T23:24:37.743Z,6.43
2023-03-16T23:29:43.271Z,6.36
2023-03-16T23:34:49.129Z,6.30
2023-03-16T23:39:54.795Z,6.25
2023-03-16T23:45:03.214Z,6.27
2023-03-16T23:50:11.045Z,6.25
2023-03-16T23:55:17.535Z,6.20
